Time;durP1;ratioP1;P1;durP2;ratioP2;P2;SDS_P1;SDS_P2;PMS_P1;PMS_P2;Temp;Humidity;BMP_temperature;BMP_pressure;BME280_temperature;BME280_humidity;BME280_pressure;Samples;Min_cycle;Max_cycle;Signal;HPM_P1;HPM_P2
2022/05/19 00:01:57;;;;;;;15.15;4.72;;;25.80;58.60;;;;;;5037442;28;20021;-60
2022/05/19 00:04:22;;;;;;;13.00;4.30;;;25.70;58.60;;;;;;5039191;28;20110;-60
2022/05/19 00:06:48;;;;;;;12.85;4.88;;;25.70;58.80;;;;;;5038736;28;20029;-60
2022/05/19 00:09:14;;;;;;;11.70;4.57;;;25.70;58.90;;;;;;5039209;28;20461;-62
2022/05/19 00:11:39;;;;;;;17.70;4.97;;;25.60;58.90;;;;;;5035363;28;20037;-60
2022/05/19 00:14:05;;;;;;;15.13;4.97;;;25.60;59.00;;;;;;5019690;28;20529;-59
2022/05/19 00:16:32;;;;;;;16.27;5.10;;;25.60;59.10;;;;;;5037721;28;20515;-60
2022/05/19 00:18:57;;;;;;;15.07;4.82;;;25.60;59.20;;;;;;5038780;28;20112;-61
2022/05/19 00:21:23;;;;;;;19.63;4.30;;;25.50;59.20;;;;;;5038895;28;20187;-62
2022/05/19 00:23:48;;;;;;;13.02;4.65;;;25.50;59.30;;;;;;5018777;28;20571;-60
2022/05/19 00:26:14;;;;;;;17.58;4.68;;;25.50;59.40;;;;;;5036544;28;20736;-61
2022/05/19 00:28:39;;;;;;;18.40;5.28;;;25.50;59.40;;;;;;5039663;28;20067;-60
2022/05/19 00:31:05;;;;;;;11.80;4.70;;;25.40;59.50;;;;;;5031709;28;20130;-60
2022/05/19 00:33:30;;;;;;;14.07;4.22;;;25.40;59.60;;;;;;5041218;28;20090;-61
2022/05/19 00:35:56;;;;;;;15.45;4.90;;;25.40;59.60;;;;;;5038566;28;20135;-60
2022/05/19 00:38:21;;;;;;;10.02;4.47;;;25.40;59.70;;;;;;5037410;28;20048;-60
2022/05/19 00:40:53;;;;;;;9.75;4.30;;;25.30;59.70;;;;;;5037708;28;20061;-61
2022/05/19 00:43:30;;;;;;;15.90;4.05;;;25.30;59.90;;;;;;5037807;28;20132;-59
2022/05/19 00:46:12;;;;;;;16.98;4.78;;;25.30;60.00;;;;;;5019031;28;20438;-60
2022/05/19 00:48:53;;;;;;;12.63;4.30;;;25.30;60.00;;;;;;5038840;28;20036;-61
2022/05/19 00:51:19;;;;;;;14.27;4.55;;;25.20;60.10;;;;;;5035048;28;20930;-60
2022/05/19 00:53:52;;;;;;;15.57;4.40;;;25.20;60.30;;;;;;5035444;28;20021;-62
2022/05/19 00:56:24;;;;;;;11.45;4.30;;;25.10;60.20;;;;;;5020980;28;20528;-60
2022/05/19 00:59:00;;;;;;;13.35;4.60;;;25.10;60.30;;;;;;5023388;28;20350;-61
2022/05/19 01:01:25;;;;;;;10.20;4.20;;;25.10;60.40;;;;;;5036062;28;20223;-61
2022/05/19 01:03:55;;;;;;;11.70;3.97;;;25.10;60.40;;;;;;5035870;28;20212;-60
2022/05/19 01:06:21;;;;;;;13.27;3.55;;;25.00;60.40;;;;;;5035218;28;20158;-60
2022/05/19 01:08:50;;;;;;;11.93;3.95;;;25.00;60.50;;;;;;5022052;28;20017;-60
2022/05/19 01:11:18;;;;;;;7.40;3.33;;;25.00;60.60;;;;;;5021450;28;20107;-61
2022/05/19 01:13:44;;;;;;;12.05;4.07;;;25.00;60.60;;;;;;5031317;28;20403;-61
2022/05/19 01:16:09;;;;;;;11.70;3.85;;;24.90;60.70;;;;;;5029941;28;20644;-62
2022/05/19 01:18:36;;;;;;;11.45;4.75;;;24.90;60.80;;;;;;5021351;28;21046;-60
2022/05/19 01:21:01;;;;;;;13.40;4.32;;;24.90;60.90;;;;;;5036228;28;20017;-62
2022/05/19 01:23:30;;;;;;;9.02;3.35;;;24.90;61.10;;;;;;5020404;28;20030;-60
2022/05/19 01:26:14;;;;;;;10.73;4.00;;;24.80;61.20;;;;;;5037732;28;20457;-63
2022/05/19 01:28:40;;;;;;;9.27;4.40;;;24.80;61.30;;;;;;5033487;28;20051;-62
2022/05/19 01:31:05;;;;;;;9.65;4.00;;;24.80;61.30;;;;;;5017716;28;20401;-62
2022/05/19 01:33:31;;;;;;;14.02;4.82;;;24.80;61.40;;;;;;5021414;28;20097;-59
2022/05/19 01:35:56;;;;;;;9.70;4.20;;;24.80;61.50;;;;;;5035631;28;20087;-60
2022/05/19 01:38:26;;;;;;;7.97;3.90;;;24.70;61.40;;;;;;5038176;28;20041;-60
2022/05/19 01:41:09;;;;;;;8.25;4.18;;;24.70;61.60;;;;;;5024162;28;20037;-61
2022/05/19 01:43:47;;;;;;;10.38;4.35;;;24.60;61.70;;;;;;5041176;28;20041;-60
2022/05/19 01:46:13;;;;;;;6.32;4.28;;;24.60;61.80;;;;;;5026372;28;20033;-61
2022/05/19 01:48:55;;;;;;;10.90;4.13;;;24.60;61.80;;;;;;5041765;28;20524;-62
2022/05/19 01:51:36;;;;;;;9.55;4.07;;;24.60;61.90;;;;;;5041809;28;20040;-59
2022/05/19 01:54:06;;;;;;;6.30;4.35;;;24.60;62.00;;;;;;5025155;28;20052;-61
2022/05/19 01:56:36;;;;;;;13.98;3.90;;;24.60;62.10;;;;;;5024252;28;20030;-60
2022/05/19 01:59:36;;;;;;;7.55;3.50;;;24.50;62.10;;;;;;5022893;28;20111;-61
2022/05/19 02:02:13;;;;;;;10.38;3.78;;;24.50;62.00;;;;;;5031834;28;20412;-62
2022/05/19 02:04:39;;;;;;;8.98;4.25;;;24.50;62.10;;;;;;5040179;28;20507;-63
2022/05/19 02:07:06;;;;;;;7.15;4.38;;;24.50;62.20;;;;;;5039923;28;20071;-62
2022/05/19 02:09:46;;;;;;;12.40;4.22;;;24.40;62.20;;;;;;5040696;28;20040;-61
2022/05/19 02:12:12;;;;;;;7.30;4.03;;;24.40;62.20;;;;;;5026027;28;20885;-61
2022/05/19 02:14:41;;;;;;;7.85;4.13;;;24.40;62.40;;;;;;5038704;28;20032;-61
2022/05/19 02:17:09;;;;;;;9.00;4.20;;;24.40;62.40;;;;;;5041557;28;20025;-61
2022/05/19 02:19:38;;;;;;;7.53;3.78;;;24.40;62.50;;;;;;5039111;28;20112;-61
2022/05/19 02:22:04;;;;;;;7.32;4.10;;;24.30;62.50;;;;;;5038048;28;20041;-60
2022/05/19 02:24:29;;;;;;;8.52;4.03;;;24.30;62.70;;;;;;5024767;28;20472;-60
2022/05/19 02:26:55;;;;;;;6.28;3.90;;;24.30;62.70;;;;;;5043664;28;20087;-61
2022/05/19 02:29:23;;;;;;;8.52;4.22;;;24.30;62.80;;;;;;5040233;28;20112;-62
2022/05/19 02:31:49;;;;;;;8.52;3.90;;;24.20;62.80;;;;;;5042484;28;20037;-61
2022/05/19 02:34:14;;;;;;;8.13;4.03;;;24.20;62.80;;;;;;5041499;28;20365;-61
2022/05/19 02:36:40;;;;;;;5.38;3.97;;;24.20;63.00;;;;;;5040075;28;20036;-61
2022/05/19 02:39:06;;;;;;;4.55;3.97;;;24.20;63.00;;;;;;5041457;28;20392;-63
2022/05/19 02:41:31;;;;;;;8.23;4.00;;;24.00;63.00;;;;;;5043083;28;20048;-62
2022/05/19 02:43:57;;;;;;;6.05;3.95;;;24.10;63.10;;;;;;5040880;28;20033;-60
2022/05/19 02:46:22;;;;;;;10.00;4.13;;;24.10;63.20;;;;;;5040445;28;20041;-60
2022/05/19 02:48:48;;;;;;;6.93;3.88;;;24.10;63.30;;;;;;5023807;28;20123;-60
2022/05/19 02:51:14;;;;;;;5.03;4.03;;;24.10;63.40;;;;;;5024849;28;20067;-64
2022/05/19 02:53:39;;;;;;;8.98;4.40;;;24.10;63.50;;;;;;5041471;28;20473;-60
2022/05/19 02:56:05;;;;;;;6.07;3.72;;;24.00;63.50;;;;;;5041458;28;20029;-60
2022/05/19 02:58:30;;;;;;;6.25;3.42;;;24.00;63.70;;;;;;5024198;28;20025;-61
2022/05/19 03:00:56;;;;;;;7.88;3.63;;;24.00;63.80;;;;;;5037191;28;20073;-60
2022/05/19 03:03:21;;;;;;;7.88;4.15;;;24.00;63.80;;;;;;5039788;28;20035;-60
2022/05/19 03:05:47;;;;;;;8.77;3.80;;;23.90;63.80;;;;;;5041684;28;20527;-59
2022/05/19 03:08:12;;;;;;;7.60;3.80;;;23.90;63.90;;;;;;5039454;28;20025;-61
2022/05/19 03:10:40;;;;;;;8.25;4.38;;;23.90;64.00;;;;;;5041427;28;20021;-60
2022/05/19 03:13:06;;;;;;;6.18;4.10;;;23.90;64.10;;;;;;5039772;28;20974;-60
2022/05/19 03:15:33;;;;;;;8.23;4.10;;;23.90;64.10;;;;;;5037865;28;20094;-62
2022/05/19 03:17:58;;;;;;;5.60;4.05;;;23.80;64.20;;;;;;5038246;28;20021;-61
2022/05/19 03:20:24;;;;;;;7.03;4.00;;;23.80;64.30;;;;;;5039346;28;20055;-61
2022/05/19 03:22:49;;;;;;;8.45;4.25;;;23.80;64.30;;;;;;5041451;28;20032;-61
2022/05/19 03:25:15;;;;;;;5.32;4.00;;;23.70;64.50;;;;;;5038030;28;20032;-60
2022/05/19 03:27:41;;;;;;;7.63;3.55;;;23.70;64.50;;;;;;5022476;28;20063;-62
2022/05/19 03:30:08;;;;;;;4.88;3.90;;;23.60;64.50;;;;;;5038453;28;20406;-61
2022/05/19 03:32:34;;;;;;;6.45;3.55;;;23.60;64.60;;;;;;5037223;28;20021;-61
2022/05/19 03:34:59;;;;;;;4.63;3.92;;;23.60;64.70;;;;;;5040726;28;20071;-62
2022/05/19 03:37:26;;;;;;;4.55;3.72;;;23.60;64.70;;;;;;5022348;28;20094;-61
2022/05/19 03:39:51;;;;;;;7.32;3.92;;;23.60;64.90;;;;;;5037843;28;20491;-64
2022/05/19 03:42:17;;;;;;;6.82;3.90;;;23.50;64.80;;;;;;5007396;28;20032;-61
2022/05/19 03:44:42;;;;;;;6.85;3.70;;;23.50;64.90;;;;;;5021894;28;20049;-62
2022/05/19 03:47:08;;;;;;;4.57;3.42;;;23.50;64.90;;;;;;5039712;28;20044;-61
2022/05/19 03:49:34;;;;;;;9.65;3.65;;;23.50;64.90;;;;;;5041907;28;20052;-61
2022/05/19 03:52:00;;;;;;;5.88;3.47;;;23.40;64.80;;;;;;5038676;28;20021;-62
2022/05/19 03:54:26;;;;;;;6.07;3.20;;;23.40;64.90;;;;;;5037614;28;20044;-60
2022/05/19 03:56:51;;;;;;;6.05;3.28;;;23.40;65.00;;;;;;5038213;28;20075;-60
2022/05/19 03:59:16;;;;;;;6.10;3.80;;;23.40;65.00;;;;;;5039806;28;20028;-61
2022/05/19 04:01:42;;;;;;;4.80;3.60;;;23.40;65.00;;;;;;5037556;28;20063;-61
2022/05/19 04:04:08;;;;;;;4.70;3.20;;;23.30;65.10;;;;;;5039462;28;20702;-61
2022/05/19 04:06:37;;;;;;;6.40;3.58;;;23.30;65.20;;;;;;5038164;28;20056;-60
2022/05/19 04:09:03;;;;;;;3.75;3.25;;;23.20;65.30;;;;;;5036333;28;20105;-64
2022/05/19 04:11:29;;;;;;;11.73;3.85;;;23.30;65.50;;;;;;5021861;28;20816;-63
2022/05/19 04:13:54;;;;;;;5.00;3.92;;;23.20;65.40;;;;;;5037263;28;20044;-61
2022/05/19 04:16:20;;;;;;;7.05;3.85;;;23.20;65.50;;;;;;5020727;28;20112;-63
2022/05/19 04:18:45;;;;;;;4.10;3.30;;;23.20;65.60;;;;;;5038762;28;20041;-63
2022/05/19 04:21:11;;;;;;;6.10;3.33;;;23.10;65.60;;;;;;5039442;28;20044;-63
2022/05/19 04:23:36;;;;;;;4.03;3.10;;;23.10;65.70;;;;;;5037849;28;20056;-64
2022/05/19 04:26:02;;;;;;;5.03;3.33;;;23.10;65.80;;;;;;5038680;28;20021;-65
2022/05/19 04:28:27;;;;;;;20.50;4.80;;;23.10;65.70;;;;;;5041265;28;20576;-61
2022/05/19 04:30:53;;;;;;;35.47;7.05;;;23.10;65.80;;;;;;5036780;28;20028;-62
2022/05/19 04:33:18;;;;;;;22.27;5.20;;;23.10;65.80;;;;;;5037133;28;20049;-64
2022/05/19 04:35:44;;;;;;;26.45;5.10;;;23.10;65.80;;;;;;5037706;28;20025;-62
2022/05/19 04:38:15;;;;;;;20.52;6.03;;;23.00;65.80;;;;;;5037753;28;20431;-63
2022/05/19 04:40:43;;;;;;;36.00;6.43;;;23.00;65.80;;;;;;5039026;28;20037;-63
2022/05/19 04:43:08;;;;;;;25.95;5.60;;;23.00;65.80;;;;;;5035512;28;20025;-63
2022/05/19 04:45:34;;;;;;;21.42;5.05;;;23.10;65.80;;;;;;5033874;28;20055;-62
2022/05/19 04:47:59;;;;;;;25.02;5.40;;;23.00;65.80;;;;;;5037032;28;20036;-62
2022/05/19 04:50:25;;;;;;;18.52;5.35;;;23.00;65.80;;;;;;5033873;28;20028;-64
2022/05/19 04:52:50;;;;;;;17.45;5.10;;;23.00;66.50;;;;;;5036637;28;20052;-62
2022/05/19 04:55:16;;;;;;;17.40;5.38;;;23.00;65.90;;;;;;5037772;28;20094;-64
2022/05/19 04:57:43;;;;;;;25.30;4.93;;;23.00;66.70;;;;;;5033635;28;20033;-62
2022/05/19 05:00:09;;;;;;;17.08;4.93;;;23.00;66.00;;;;;;5030147;28;20111;-62
2022/05/19 05:02:35;;;;;;;19.73;4.85;;;23.00;66.10;;;;;;5033426;28;20021;-64
2022/05/19 05:05:01;;;;;;;11.82;4.53;;;23.00;66.10;;;;;;5005449;28;20021;-63
2022/05/19 05:07:26;;;;;;;17.80;4.70;;;22.90;66.10;;;;;;5036228;28;20056;-63
2022/05/19 05:09:52;;;;;;;15.02;4.85;;;22.90;66.10;;;;;;5031987;28;20163;-63
2022/05/19 05:12:17;;;;;;;13.32;4.65;;;23.00;66.10;;;;;;5034446;28;20033;-63
2022/05/19 05:14:43;;;;;;;20.98;4.38;;;23.10;66.10;;;;;;5041832;28;20036;-64
2022/05/19 05:17:08;;;;;;;20.17;4.85;;;22.90;66.10;;;;;;5042036;28;20059;-64
2022/05/19 05:19:34;;;;;;;18.73;4.35;;;22.90;66.70;;;;;;5044214;28;20487;-64
2022/05/19 05:22:00;;;;;;;16.45;4.43;;;22.90;66.10;;;;;;5027892;28;20119;-64
2022/05/19 05:24:26;;;;;;;15.02;4.05;;;22.90;66.10;;;;;;5024501;28;20090;-62
2022/05/19 05:26:52;;;;;;;18.85;3.85;;;23.00;66.30;;;;;;5039774;28;20420;-64
2022/05/19 05:29:19;;;;;;;17.05;4.75;;;23.00;66.90;;;;;;5035331;28;20028;-62
2022/05/19 05:31:45;;;;;;;17.88;4.07;;;22.90;66.90;;;;;;5036839;28;20017;-62
2022/05/19 05:34:10;;;;;;;12.70;4.10;;;22.90;67.10;;;;;;5037932;28;20110;-61
2022/05/19 05:36:36;;;;;;;12.20;3.83;;;22.90;66.90;;;;;;5035947;28;20069;-62
2022/05/19 05:39:02;;;;;;;16.95;4.43;;;22.90;67.00;;;;;;5035685;28;20052;-64
2022/05/19 05:41:27;;;;;;;14.55;4.35;;;22.90;67.10;;;;;;5038889;28;20119;-62
2022/05/19 05:43:52;;;;;;;9.65;4.00;;;22.90;67.00;;;;;;5039017;28;20094;-64
2022/05/19 05:46:18;;;;;;;12.90;3.83;;;22.90;67.10;;;;;;5039717;28;20596;-63
2022/05/19 05:48:45;;;;;;;12.25;3.88;;;22.80;67.20;;;;;;5032170;28;20044;-65
2022/05/19 05:51:11;;;;;;;11.45;3.83;;;22.80;67.40;;;;;;5035551;28;20821;-63
2022/05/19 05:53:37;;;;;;;7.38;3.78;;;22.80;67.40;;;;;;5039180;28;20048;-64
2022/05/19 05:56:03;;;;;;;10.27;3.50;;;22.80;67.50;;;;;;5040332;28;20072;-62
2022/05/19 05:58:29;;;;;;;9.65;3.42;;;22.80;67.60;;;;;;5021585;28;20029;-63
2022/05/19 06:00:55;;;;;;;11.70;3.58;;;22.80;67.70;;;;;;5021419;28;20025;-63
2022/05/19 06:03:20;;;;;;;10.18;3.53;;;22.70;67.80;;;;;;5030634;28;20033;-62
2022/05/19 06:05:46;;;;;;;6.72;3.22;;;22.70;67.90;;;;;;5012847;28;20091;-63
2022/05/19 06:08:12;;;;;;;12.25;4.00;;;22.70;68.00;;;;;;5032028;28;21927;-65
2022/05/19 06:10:38;;;;;;;8.98;3.70;;;22.70;68.20;;;;;;5033837;28;20045;-63
2022/05/19 06:13:04;;;;;;;9.73;3.88;;;22.70;68.40;;;;;;5032082;28;20033;-62
2022/05/19 06:15:29;;;;;;;7.60;3.65;;;22.60;68.80;;;;;;5024953;28;20045;-62
2022/05/19 06:17:55;;;;;;;9.18;3.90;;;22.70;69.20;;;;;;5019265;28;20041;-61
2022/05/19 06:20:21;;;;;;;12.60;3.50;;;22.70;69.30;;;;;;5032900;28;20779;-63
2022/05/19 06:22:46;;;;;;;10.05;4.05;;;22.60;69.70;;;;;;5028388;28;20702;-63
2022/05/19 06:25:15;;;;;;;19.52;4.85;;;22.50;70.10;;;;;;5007405;28;20040;-62
2022/05/19 06:27:41;;;;;;;20.33;5.05;;;22.40;70.50;;;;;;5030930;28;20029;-62
2022/05/19 06:30:07;;;;;;;32.75;6.28;;;22.40;70.90;;;;;;5032384;28;20021;-65
2022/05/19 06:32:37;;;;;;;23.10;5.78;;;22.30;71.40;;;;;;5035243;28;20021;-65
2022/05/19 06:35:03;;;;;;;26.42;6.00;;;22.30;71.60;;;;;;5001191;28;20556;-64
2022/05/19 06:37:28;;;;;;;25.90;6.35;;;22.30;71.50;;;;;;5035404;28;20132;-63
2022/05/19 06:39:54;;;;;;;33.00;5.55;;;22.20;71.90;;;;;;5032379;28;20161;-62
2022/05/19 06:42:20;;;;;;;33.28;5.55;;;22.20;72.00;;;;;;5034916;28;20037;-62
2022/05/19 06:44:46;;;;;;;21.55;4.50;;;22.20;72.30;;;;;;5034130;28;20128;-61
2022/05/19 06:47:15;;;;;;;24.83;5.90;;;22.20;72.40;;;;;;5039601;28;20354;-63
2022/05/19 06:49:48;;;;;;;22.88;5.45;;;22.20;72.40;;;;;;5014935;28;20147;-62
2022/05/19 06:52:24;;;;;;;21.05;5.30;;;22.20;72.60;;;;;;5035175;28;20578;-63
2022/05/19 06:54:54;;;;;;;22.48;5.85;;;22.10;72.80;;;;;;5004705;28;20630;-63
2022/05/19 06:57:20;;;;;;;18.70;5.65;;;22.10;72.90;;;;;;5034794;28;20946;-64
2022/05/19 06:59:47;;;;;;;22.10;5.97;;;22.10;73.10;;;;;;5034329;28;20087;-64
2022/05/19 07:02:12;;;;;;;36.42;6.38;;;22.10;72.90;;;;;;5035336;28;20070;-61
2022/05/19 07:04:38;;;;;;;33.95;6.25;;;22.10;73.20;;;;;;5004893;28;20155;-63
2022/05/19 07:07:07;;;;;;;39.28;6.55;;;22.20;73.20;;;;;;5012724;28;20055;-62
2022/05/19 07:09:33;;;;;;;27.02;6.75;;;22.20;73.40;;;;;;5015339;28;20053;-63
2022/05/19 07:12:00;;;;;;;45.08;6.45;;;22.20;73.40;;;;;;5032097;28;20040;-62
2022/05/19 07:14:26;;;;;;;35.08;6.63;;;22.20;73.40;;;;;;4999230;28;20033;-62
2022/05/19 07:16:51;;;;;;;37.55;6.90;;;22.20;73.40;;;;;;5033313;28;20051;-61
2022/05/19 07:22:01;;;;;;;40.25;6.47;;;22.30;73.40;;;;;;5017471;28;20051;-62
2022/05/19 07:24:26;;;;;;;51.33;6.20;;;22.30;73.60;;;;;;5005650;28;20037;-63
2022/05/19 07:26:55;;;;;;;26.33;5.78;;;22.30;73.60;;;;;;5024970;28;20129;-64
2022/05/19 07:29:21;;;;;;;27.38;5.90;;;22.30;73.60;;;;;;5017821;28;20044;-62
2022/05/19 07:31:47;;;;;;;27.08;5.68;;;22.40;73.70;;;;;;5033143;28;20120;-64
2022/05/19 07:34:13;;;;;;;27.17;6.78;;;22.40;73.90;;;;;;5002241;28;20205;-63
2022/05/19 07:36:39;;;;;;;26.92;6.28;;;22.40;74.00;;;;;;5018747;28;20024;-62
2022/05/19 07:39:05;;;;;;;125.13;17.20;;;22.40;74.50;;;;;;5007471;28;20033;-62
2022/05/19 07:41:30;;;;;;;89.82;11.77;;;22.40;74.50;;;;;;5011121;28;20731;-63
2022/05/19 07:43:57;;;;;;;56.00;8.68;;;22.50;74.70;;;;;;5025382;28;20084;-63
2022/05/19 07:46:26;;;;;;;53.47;9.27;;;22.50;74.70;;;;;;5031531;28;20017;-62
2022/05/19 07:48:55;;;;;;;65.93;9.15;;;22.50;74.70;;;;;;5029912;28;20084;-65
2022/05/19 07:51:31;;;;;;;69.55;9.75;;;22.50;74.40;;;;;;5009335;28;20033;-62
2022/05/19 07:53:57;;;;;;;40.78;8.07;;;22.50;74.80;;;;;;5030197;28;20058;-62
2022/05/19 07:56:22;;;;;;;47.97;8.00;;;22.50;74.80;;;;;;5013238;28;20029;-63
2022/05/19 07:58:48;;;;;;;31.83;7.53;;;22.70;74.60;;;;;;5032387;28;20037;-64
2022/05/19 08:01:14;;;;;;;53.53;8.25;;;22.70;74.50;;;;;;5002940;28;20304;-63
2022/05/19 08:03:39;;;;;;;47.67;9.45;;;22.70;74.40;;;;;;5021531;28;20132;-63
2022/05/19 08:06:07;;;;;;;67.50;10.30;;;22.70;74.10;;;;;;5025810;28;20060;-63
2022/05/19 08:08:33;;;;;;;53.50;8.27;;;22.70;74.10;;;;;;5025179;28;20044;-62
2022/05/19 08:10:59;;;;;;;50.28;8.57;;;22.80;74.20;;;;;;5030559;28;21793;-63
2022/05/19 08:16:09;;;;;;;45.17;8.32;;;22.90;74.20;;;;;;5028761;28;20122;-62
2022/05/19 08:18:34;;;;;;;51.72;8.73;;;22.90;74.30;;;;;;5014181;28;20592;-62
2022/05/19 08:21:04;;;;;;;47.47;7.50;;;23.10;74.30;;;;;;5029273;28;20116;-64
2022/05/19 08:23:38;;;;;;;62.47;10.63;;;23.00;74.10;;;;;;5028675;28;20057;-63
2022/05/19 08:26:04;;;;;;;100.50;11.07;;;23.00;74.30;;;;;;5026285;28;20038;-65
2022/05/19 08:28:30;;;;;;;69.20;11.15;;;23.00;74.10;;;;;;5025992;28;20094;-65
2022/05/19 08:31:00;;;;;;;82.05;12.43;;;23.10;74.10;;;;;;5014270;28;20029;-61
2022/05/19 08:33:25;;;;;;;70.90;11.75;;;23.10;74.30;;;;;;5027495;28;20429;-63
2022/05/19 08:35:51;;;;;;;82.65;12.30;;;23.20;74.30;;;;;;5027310;28;20041;-62
2022/05/19 08:38:17;;;;;;;75.82;11.07;;;23.20;74.30;;;;;;5030783;28;20051;-63
2022/05/19 08:40:47;;;;;;;77.25;12.05;;;23.30;74.40;;;;;;5028610;28;20056;-62
2022/05/19 08:43:14;;;;;;;76.18;10.80;;;23.30;74.40;;;;;;5029827;28;20017;-61
2022/05/19 08:45:45;;;;;;;62.47;10.70;;;23.30;74.40;;;;;;5010307;28;20080;-63
2022/05/19 08:48:19;;;;;;;68.80;11.00;;;23.40;74.20;;;;;;5030238;28;20021;-63
2022/05/19 08:50:44;;;;;;;84.43;10.13;;;23.40;74.20;;;;;;5033704;28;20053;-62
2022/05/19 08:53:11;;;;;;;79.28;11.55;;;23.50;74.00;;;;;;5038336;28;20156;-63
2022/05/19 08:55:41;;;;;;;82.68;12.80;;;23.50;74.00;;;;;;5010396;28;20025;-63
2022/05/19 08:58:17;;;;;;;70.72;10.45;;;23.50;74.00;;;;;;5014418;28;20024;-63
2022/05/19 09:00:49;;;;;;;84.72;12.98;;;23.60;73.90;;;;;;5035661;28;20071;-60
2022/05/19 09:03:18;;;;;;;74.15;11.52;;;23.70;73.90;;;;;;5018640;28;20380;-63
2022/05/19 09:05:51;;;;;;;101.18;11.77;;;23.70;73.80;;;;;;5033266;28;20369;-62
2022/05/19 09:08:25;;;;;;;87.95;12.30;;;23.70;73.70;;;;;;5023993;28;20117;-63
2022/05/19 09:11:12;;;;;;;91.60;12.82;;;23.80;73.80;;;;;;5019964;28;20025;-63
2022/05/19 09:13:44;;;;;;;66.80;10.27;;;23.80;73.80;;;;;;5022808;28;20020;-64
2022/05/19 09:16:24;;;;;;;93.25;11.20;;;23.90;73.60;;;;;;5041277;28;20447;-63
2022/05/19 09:18:58;;;;;;;73.80;11.63;;;23.80;73.30;;;;;;5017120;28;20033;-64
2022/05/19 09:21:23;;;;;;;83.97;11.02;;;24.00;73.40;;;;;;5034288;28;20092;-62
2022/05/19 09:23:49;;;;;;;102.30;12.75;;;24.20;73.20;;;;;;5036416;28;21620;-61
2022/05/19 09:26:52;;;;;;;102.53;11.82;;;24.10;73.10;;;;;;5033832;28;20060;-62
2022/05/19 09:29:33;;;;;;;62.28;10.23;;;24.10;72.80;;;;;;5031005;28;20028;-64
2022/05/19 09:32:18;;;;;;;71.88;11.25;;;24.20;72.60;;;;;;5038710;28;20048;-62
2022/05/19 09:34:49;;;;;;;93.43;10.88;;;24.20;72.60;;;;;;5033534;28;20448;-60
2022/05/19 09:37:20;;;;;;;74.15;10.20;;;24.20;72.70;;;;;;5013388;28;20044;-62
2022/05/19 09:40:11;;;;;;;98.63;12.65;;;24.30;72.60;;;;;;5016974;28;20026;-63
2022/05/19 09:42:50;;;;;;;67.00;10.25;;;24.40;72.60;;;;;;5033533;28;20033;-62
2022/05/19 09:45:21;;;;;;;74.65;10.98;;;24.40;72.50;;;;;;5038414;28;20049;-64
2022/05/19 09:47:49;;;;;;;71.82;10.40;;;24.50;72.40;;;;;;5029258;28;20041;-64
2022/05/19 09:50:22;;;;;;;57.75;9.35;;;24.50;72.30;;;;;;5034286;28;20032;-64
2022/05/19 09:52:47;;;;;;;67.03;9.68;;;24.60;72.10;;;;;;5036905;28;20847;-62
2022/05/19 09:55:15;;;;;;;50.20;9.82;;;24.60;71.90;;;;;;5036533;28;20059;-62
2022/05/19 09:57:52;;;;;;;60.58;8.57;;;24.60;71.80;;;;;;5018596;28;20404;-63
2022/05/19 10:00:37;;;;;;;60.55;10.30;;;24.70;71.60;;;;;;5035187;28;20489;-62
2022/05/19 10:03:08;;;;;;;61.33;10.00;;;24.70;71.40;;;;;;5013577;28;20113;-64
2022/05/19 10:05:45;;;;;;;62.72;8.75;;;24.80;71.00;;;;;;5031430;28;20083;-63
2022/05/19 10:08:39;;;;;;;38.95;6.40;;;24.90;70.90;;;;;;5034845;28;20028;-64
2022/05/19 10:11:17;;;;;;;36.13;6.45;;;24.90;70.60;;;;;;5018604;28;20033;-61
2022/05/19 10:13:45;;;;;;;52.00;8.02;;;25.00;70.50;;;;;;5031834;28;20025;-64
2022/05/19 10:16:25;;;;;;;40.03;7.53;;;25.00;71.10;;;;;;5031963;28;20017;-62
2022/05/19 10:19:08;;;;;;;37.35;7.30;;;25.10;70.40;;;;;;5031885;28;20033;-65
2022/05/19 10:21:43;;;;;;;38.65;6.72;;;25.10;70.40;;;;;;5034094;28;20967;-62
2022/05/19 10:24:27;;;;;;;39.38;6.50;;;25.20;70.30;;;;;;5023964;28;20060;-65
2022/05/19 10:33:16;;;;;;;56.58;8.18;;;25.40;69.90;;;;;;5022655;28;20087;-63
2022/05/19 10:36:01;;;;;;;38.10;7.78;;;25.40;70.10;;;;;;5017609;28;20139;-64
2022/05/19 10:38:43;;;;;;;40.65;7.32;;;25.50;70.00;;;;;;5025483;28;20040;-64
2022/05/19 10:41:14;;;;;;;47.17;8.60;;;25.60;69.90;;;;;;5022043;28;20032;-63
2022/05/19 10:44:01;;;;;;;51.85;8.13;;;25.70;69.90;;;;;;5019565;28;20136;-64
2022/05/19 10:46:49;;;;;;;55.95;8.30;;;25.80;70.20;;;;;;5028648;28;20131;-64
2022/05/19 10:49:41;;;;;;;74.10;9.32;;;25.80;69.50;;;;;;5029459;28;20033;-62
2022/05/19 10:52:39;;;;;;;50.85;7.68;;;25.90;69.30;;;;;;5016128;28;20040;-63
2022/05/19 10:55:14;;;;;;;76.50;10.38;;;26.00;69.30;;;;;;5021578;28;20037;-64
2022/05/19 10:58:17;;;;;;;60.50;9.93;;;26.00;69.20;;;;;;5025455;28;20111;-64
2022/05/19 11:00:58;;;;;;;58.10;9.63;;;26.10;69.20;;;;;;5024681;28;20021;-63
2022/05/19 11:03:26;;;;;;;70.88;9.55;;;26.20;68.90;;;;;;5011801;28;20029;-63
2022/05/19 11:06:04;;;;;;;76.43;10.75;;;26.30;68.90;;;;;;5022581;28;20045;-64
2022/05/19 11:08:52;;;;;;;71.70;11.10;;;26.40;68.70;;;;;;5023240;28;20048;-64
2022/05/19 11:11:27;;;;;;;58.40;8.85;;;26.50;68.50;;;;;;5014990;28;20032;-63
2022/05/19 11:14:15;;;;;;;40.67;8.60;;;26.50;68.00;;;;;;5025271;28;20032;-62
2022/05/19 11:17:02;;;;;;;66.10;9.82;;;26.70;67.70;;;;;;5023595;28;20048;-65
2022/05/19 11:19:35;;;;;;;50.25;9.38;;;26.80;67.30;;;;;;5024731;28;20063;-65
2022/05/19 11:22:09;;;;;;;67.68;9.27;;;26.90;67.10;;;;;;5017886;28;20024;-64
2022/05/19 11:27:49;;;;;;;47.47;7.47;;;27.10;66.40;;;;;;5030749;28;20299;-63
2022/05/19 11:30:18;;;;;;;53.25;8.30;;;27.20;66.10;;;;;;5014869;28;20067;-64
2022/05/19 11:32:44;;;;;;;61.85;8.77;;;27.30;65.70;;;;;;5023264;28;20400;-63
2022/05/19 11:35:22;;;;;;;49.92;8.82;;;27.40;65.60;;;;;;5025726;28;20045;-64
2022/05/19 11:37:55;;;;;;;43.03;8.50;;;27.50;65.20;;;;;;5015243;28;20096;-64
2022/05/19 11:40:26;;;;;;;65.60;10.15;;;27.60;64.90;;;;;;5020442;28;20071;-64
2022/05/19 11:43:03;;;;;;;68.13;11.30;;;27.70;64.00;;;;;;5012568;28;20064;-60
2022/05/19 11:45:51;;;;;;;54.22;8.15;;;27.70;63.80;;;;;;5029436;28;20033;-62
2022/05/19 11:57:02;;;;;;;32.33;6.35;;;27.90;61.60;;;;;;5033079;28;20538;-63
2022/05/19 11:59:27;;;;;;;26.83;6.45;;;28.00;61.20;;;;;;5000730;28;20664;-63
2022/05/19 12:01:53;;;;;;;37.30;7.15;;;28.10;61.40;;;;;;5010685;28;20036;-64
2022/05/19 12:04:27;;;;;;;32.42;5.70;;;28.10;61.50;;;;;;5015233;28;20041;-61
2022/05/19 12:07:12;;;;;;;30.10;6.25;;;28.10;61.40;;;;;;5014525;28;20853;-61
2022/05/19 12:09:41;;;;;;;29.83;5.90;;;28.20;61.40;;;;;;5014640;28;20064;-62
2022/05/19 12:12:13;;;;;;;32.13;5.60;;;28.20;61.10;;;;;;5030796;28;20037;-61
2022/05/19 12:14:46;;;;;;;27.85;5.85;;;28.30;60.90;;;;;;5028917;28;20022;-61
2022/05/19 12:17:28;;;;;;;34.20;6.03;;;28.40;60.50;;;;;;5033564;28;20051;-60
2022/05/19 12:19:58;;;;;;;33.60;5.35;;;28.30;60.50;;;;;;5034511;28;20111;-60
2022/05/19 12:22:23;;;;;;;32.63;5.50;;;28.30;60.60;;;;;;5016828;28;20512;-61
2022/05/19 12:25:01;;;;;;;31.50;6.03;;;28.30;60.70;;;;;;5034257;28;20052;-61
2022/05/19 12:27:36;;;;;;;105.63;13.25;;;28.30;60.40;;;;;;5028314;28;20052;-62
2022/05/19 12:33:10;;;;;;;50.63;7.32;;;28.40;60.70;;;;;;5021942;28;20106;-61
2022/05/19 12:35:35;;;;;;;42.83;6.97;;;28.50;60.30;;;;;;5030414;28;20068;-61
2022/05/19 12:38:03;;;;;;;42.28;7.20;;;28.40;60.10;;;;;;5027365;28;20112;-63
2022/05/19 12:40:51;;;;;;;46.30;6.82;;;28.60;60.30;;;;;;5016038;28;20033;-62
2022/05/19 12:43:21;;;;;;;61.03;8.85;;;28.60;60.30;;;;;;5013566;28;20114;-59
2022/05/19 12:45:55;;;;;;;57.30;9.23;;;28.60;60.40;;;;;;5001684;28;20037;-62
2022/05/19 12:48:31;;;;;;;56.08;8.75;;;28.60;60.60;;;;;;5033912;28;20020;-62
2022/05/19 12:51:08;;;;;;;42.50;6.72;;;28.60;60.70;;;;;;5031401;28;20022;-62
2022/05/19 12:53:42;;;;;;;93.25;12.23;;;28.60;60.60;;;;;;5033545;28;20788;-61
2022/05/19 12:56:08;;;;;;;66.50;9.93;;;28.50;60.90;;;;;;5034983;28;20037;-63
2022/05/19 12:58:33;;;;;;;43.90;7.72;;;28.50;61.20;;;;;;5008520;28;20091;-62
2022/05/19 13:01:22;;;;;;;40.45;7.07;;;28.60;61.30;;;;;;5032774;28;20227;-62
2022/05/19 13:04:04;;;;;;;36.00;6.18;;;28.60;61.30;;;;;;5030325;28;20033;-62
2022/05/19 13:06:29;;;;;;;24.38;5.15;;;28.60;61.40;;;;;;5017695;28;20480;-62
2022/05/19 13:08:55;;;;;;;28.48;5.70;;;28.70;61.10;;;;;;5034062;28;20079;-62
2022/05/19 13:11:29;;;;;;;37.42;6.05;;;28.80;61.10;;;;;;5033655;28;20071;-62
2022/05/19 13:13:56;;;;;;;29.70;5.35;;;28.80;61.30;;;;;;5023600;28;20139;-63
2022/05/19 13:16:26;;;;;;;28.98;5.70;;;28.80;61.30;;;;;;5014358;28;20059;-61
2022/05/19 13:18:58;;;;;;;31.48;6.47;;;28.90;61.20;;;;;;5030795;28;20068;-60